sensor_id;sensor_type;location;lat;lon;timestamp;P1;durP1;ratioP1;P2;durP2;ratioP2
54557;SDS011;40452;50.080;20.040;2023-03-23T04:03:06;9.55;;;6.90;;
54557;SDS011;40452;50.080;20.040;2023-03-23T04:11:52;8.77;;;5.40;;
54557;SDS011;40452;50.080;20.040;2023-03-23T04:14:44;10.80;;;4.80;;
54557;SDS011;40452;50.080;20.040;2023-03-23T04:17:10;8.10;;;4.03;;
54557;SDS011;40452;50.080;20.040;2023-03-23T04:19:36;15.95;;;5.07;;
54557;SDS011;40452;50.080;20.040;2023-03-23T04:22:03;6.97;;;4.38;;
54557;SDS011;40452;50.080;20.040;2023-03-23T04:24:45;7.15;;;4.40;;
54557;SDS011;40452;50.080;20.040;2023-03-23T04:27:10;8.65;;;5.57;;
54557;SDS011;40452;50.080;20.040;2023-03-23T04:29:38;9.93;;;5.97;;
54557;SDS011;40452;50.080;20.040;2023-03-23T04:32:03;9.65;;;6.07;;
54557;SDS011;40452;50.080;20.040;2023-03-23T04:34:29;10.15;;;6.45;;
54557;SDS011;40452;50.080;20.040;2023-03-23T04:36:57;15.18;;;7.63;;
54557;SDS011;40452;50.080;20.040;2023-03-23T04:39:23;11.68;;;7.32;;
54557;SDS011;40452;50.080;20.040;2023-03-23T04:41:49;15.13;;;7.57;;
54557;SDS011;40452;50.080;20.040;2023-03-23T04:44:14;15.43;;;8.02;;
54557;SDS011;40452;50.080;20.040;2023-03-23T04:46:49;12.70;;;8.18;;
54557;SDS011;40452;50.080;20.040;2023-03-23T04:49:15;16.52;;;8.52;;
54557;SDS011;40452;50.080;20.040;2023-03-23T04:51:45;14.82;;;8.65;;
54557;SDS011;40452;50.080;20.040;2023-03-23T04:54:11;15.13;;;8.98;;
54557;SDS011;40452;50.080;20.040;2023-03-23T04:56:37;15.25;;;8.88;;
54557;SDS011;40452;50.080;20.040;2023-03-23T04:59:03;19.10;;;9.85;;
54557;SDS011;40452;50.080;20.040;2023-03-23T05:01:31;15.98;;;9.48;;
54557;SDS011;40452;50.080;20.040;2023-03-23T05:03:58;15.02;;;9.48;;
54557;SDS011;40452;50.080;20.040;2023-03-23T05:06:25;16.98;;;9.57;;
54557;SDS011;40452;50.080;20.040;2023-03-23T05:08:51;15.20;;;9.60;;
54557;SDS011;40452;50.080;20.040;2023-03-23T05:11:16;19.20;;;9.48;;
54557;SDS011;40452;50.080;20.040;2023-03-23T05:13:42;14.25;;;9.48;;
54557;SDS011;40452;50.080;20.040;2023-03-23T05:16:09;16.73;;;10.05;;
54557;SDS011;40452;50.080;20.040;2023-03-23T05:18:34;17.77;;;10.07;;
54557;SDS011;40452;50.080;20.040;2023-03-23T05:21:03;15.07;;;10.55;;
54557;SDS011;40452;50.080;20.040;2023-03-23T05:23:29;15.43;;;9.68;;
54557;SDS011;40452;50.080;20.040;2023-03-23T05:26:00;16.33;;;10.25;;
54557;SDS011;40452;50.080;20.040;2023-03-23T05:28:34;16.38;;;10.95;;
54557;SDS011;40452;50.080;20.040;2023-03-23T05:31:01;15.55;;;10.57;;
54557;SDS011;40452;50.080;20.040;2023-03-23T05:33:27;17.05;;;10.82;;
54557;SDS011;40452;50.080;20.040;2023-03-23T05:35:52;15.55;;;10.85;;
54557;SDS011;40452;50.080;20.040;2023-03-23T05:38:18;20.58;;;11.20;;
54557;SDS011;40452;50.080;20.040;2023-03-23T05:40:44;20.10;;;10.65;;
54557;SDS011;40452;50.080;20.040;2023-03-23T05:43:10;16.70;;;10.50;;
54557;SDS011;40452;50.080;20.040;2023-03-23T05:45:35;18.20;;;10.48;;
54557;SDS011;40452;50.080;20.040;2023-03-23T05:48:01;15.32;;;10.15;;
54557;SDS011;40452;50.080;20.040;2023-03-23T05:50:27;16.60;;;10.52;;
54557;SDS011;40452;50.080;20.040;2023-03-23T05:52:52;18.23;;;11.02;;
54557;SDS011;40452;50.080;20.040;2023-03-23T05:55:19;17.20;;;10.95;;
54557;SDS011;40452;50.080;20.040;2023-03-23T05:57:45;19.15;;;11.32;;
54557;SDS011;40452;50.080;20.040;2023-03-23T06:00:11;20.52;;;11.02;;
54557;SDS011;40452;50.080;20.040;2023-03-23T06:02:44;24.02;;;11.73;;
54557;SDS011;40452;50.080;20.040;2023-03-23T06:05:10;20.05;;;11.32;;
54557;SDS011;40452;50.080;20.040;2023-03-23T06:07:36;25.90;;;16.27;;
54557;SDS011;40452;50.080;20.040;2023-03-23T06:10:05;33.15;;;16.63;;
54557;SDS011;40452;50.080;20.040;2023-03-23T06:12:33;43.40;;;17.08;;
54557;SDS011;40452;50.080;20.040;2023-03-23T06:15:03;27.17;;;15.25;;
54557;SDS011;40452;50.080;20.040;2023-03-23T06:17:31;28.52;;;15.05;;
54557;SDS011;40452;50.080;20.040;2023-03-23T06:19:57;30.80;;;15.35;;
54557;SDS011;40452;50.080;20.040;2023-03-23T06:22:23;31.35;;;15.43;;
54557;SDS011;40452;50.080;20.040;2023-03-23T06:24:48;29.60;;;13.77;;
54557;SDS011;40452;50.080;20.040;2023-03-23T06:27:14;28.77;;;14.40;;
54557;SDS011;40452;50.080;20.040;2023-03-23T06:29:41;45.03;;;16.35;;
54557;SDS011;40452;50.080;20.040;2023-03-23T06:32:06;30.13;;;13.38;;
54557;SDS011;40452;50.080;20.040;2023-03-23T06:34:32;31.45;;;13.35;;
54557;SDS011;40452;50.080;20.040;2023-03-23T06:36:58;27.23;;;12.35;;
54557;SDS011;40452;50.080;20.040;2023-03-23T06:39:24;25.30;;;12.02;;
54557;SDS011;40452;50.080;20.040;2023-03-23T06:41:49;23.33;;;10.60;;
54557;SDS011;40452;50.080;20.040;2023-03-23T06:44:16;22.52;;;10.90;;
54557;SDS011;40452;50.080;20.040;2023-03-23T06:46:42;33.35;;;11.23;;
54557;SDS011;40452;50.080;20.040;2023-03-23T06:49:08;37.53;;;10.57;;
54557;SDS011;40452;50.080;20.040;2023-03-23T06:51:35;21.25;;;9.02;;
54557;SDS011;40452;50.080;20.040;2023-03-23T06:54:01;210.73;;;20.30;;
54557;SDS011;40452;50.080;20.040;2023-03-23T06:56:27;46.25;;;9.75;;
54557;SDS011;40452;50.080;20.040;2023-03-23T06:58:53;30.08;;;8.07;;
54557;SDS011;40452;50.080;20.040;2023-03-23T07:01:19;29.05;;;7.55;;
54557;SDS011;40452;50.080;20.040;2023-03-23T07:03:44;26.35;;;9.50;;
54557;SDS011;40452;50.080;20.040;2023-03-23T07:06:10;36.22;;;11.18;;
54557;SDS011;40452;50.080;20.040;2023-03-23T07:08:36;30.65;;;10.52;;
54557;SDS011;40452;50.080;20.040;2023-03-23T07:11:02;20.17;;;9.75;;
54557;SDS011;40452;50.080;20.040;2023-03-23T07:13:31;21.23;;;9.73;;
54557;SDS011;40452;50.080;20.040;2023-03-23T07:15:57;23.92;;;9.77;;
54557;SDS011;40452;50.080;20.040;2023-03-23T07:18:23;24.73;;;9.68;;
54557;SDS011;40452;50.080;20.040;2023-03-23T07:20:49;20.27;;;8.95;;
54557;SDS011;40452;50.080;20.040;2023-03-23T07:23:22;23.65;;;9.40;;
54557;SDS011;40452;50.080;20.040;2023-03-23T07:25:47;21.63;;;9.35;;
54557;SDS011;40452;50.080;20.040;2023-03-23T07:28:13;21.50;;;9.00;;
54557;SDS011;40452;50.080;20.040;2023-03-23T07:30:39;21.92;;;9.20;;
54557;SDS011;40452;50.080;20.040;2023-03-23T07:33:06;21.45;;;9.32;;
54557;SDS011;40452;50.080;20.040;2023-03-23T07:35:32;19.25;;;9.02;;
54557;SDS011;40452;50.080;20.040;2023-03-23T07:37:59;18.23;;;8.40;;
54557;SDS011;40452;50.080;20.040;2023-03-23T07:40:25;14.68;;;8.10;;
54557;SDS011;40452;50.080;20.040;2023-03-23T07:42:52;18.55;;;8.43;;
54557;SDS011;40452;50.080;20.040;2023-03-23T07:45:20;18.50;;;8.13;;
54557;SDS011;40452;50.080;20.040;2023-03-23T07:47:46;17.02;;;8.63;;
54557;SDS011;40452;50.080;20.040;2023-03-23T07:50:12;20.42;;;8.07;;
54557;SDS011;40452;50.080;20.040;2023-03-23T07:52:38;16.77;;;7.35;;
54557;SDS011;40452;50.080;20.040;2023-03-23T07:55:06;15.93;;;7.80;;
54557;SDS011;40452;50.080;20.040;2023-03-23T07:57:34;16.48;;;6.93;;
54557;SDS011;40452;50.080;20.040;2023-03-23T08:00:00;11.13;;;7.00;;
54557;SDS011;40452;50.080;20.040;2023-03-23T08:02:26;15.50;;;7.50;;
54557;SDS011;40452;50.080;20.040;2023-03-23T08:04:51;18.52;;;7.55;;
54557;SDS011;40452;50.080;20.040;2023-03-23T08:07:18;13.32;;;7.35;;
54557;SDS011;40452;50.080;20.040;2023-03-23T08:09:45;19.02;;;7.75;;
54557;SDS011;40452;50.080;20.040;2023-03-23T08:12:11;15.25;;;8.50;;
54557;SDS011;40452;50.080;20.040;2023-03-23T08:14:37;17.40;;;7.22;;
54557;SDS011;40452;50.080;20.040;2023-03-23T08:17:05;11.70;;;6.80;;
54557;SDS011;40452;50.080;20.040;2023-03-23T08:19:30;14.60;;;7.05;;
54557;SDS011;40452;50.080;20.040;2023-03-23T08:22:01;17.30;;;7.10;;
54557;SDS011;40452;50.080;20.040;2023-03-23T08:24:28;13.95;;;7.25;;
54557;SDS011;40452;50.080;20.040;2023-03-23T18:51:54;40.97;;;25.38;;
54557;SDS011;40452;50.080;20.040;2023-03-23T18:54:20;40.17;;;26.00;;
54557;SDS011;40452;50.080;20.040;2023-03-23T18:56:46;39.13;;;25.25;;
54557;SDS011;40452;50.080;20.040;2023-03-23T18:59:11;41.85;;;26.55;;
54557;SDS011;40452;50.080;20.040;2023-03-23T19:01:37;45.03;;;26.05;;
54557;SDS011;40452;50.080;20.040;2023-03-23T19:04:03;39.40;;;24.35;;
54557;SDS011;40452;50.080;20.040;2023-03-23T19:06:29;40.92;;;24.17;;
54557;SDS011;40452;50.080;20.040;2023-03-23T19:08:55;37.92;;;24.92;;
54557;SDS011;40452;50.080;20.040;2023-03-23T19:11:21;36.60;;;25.17;;
54557;SDS011;40452;50.080;20.040;2023-03-23T19:13:50;35.17;;;23.63;;
54557;SDS011;40452;50.080;20.040;2023-03-23T19:16:16;35.80;;;23.58;;
54557;SDS011;40452;50.080;20.040;2023-03-23T19:18:41;33.85;;;22.73;;
54557;SDS011;40452;50.080;20.040;2023-03-23T19:21:07;36.05;;;23.42;;
54557;SDS011;40452;50.080;20.040;2023-03-23T19:23:33;33.70;;;22.73;;
54557;SDS011;40452;50.080;20.040;2023-03-23T19:25:58;36.38;;;23.05;;
54557;SDS011;40452;50.080;20.040;2023-03-23T19:28:24;32.10;;;22.65;;
54557;SDS011;40452;50.080;20.040;2023-03-23T19:30:52;34.13;;;21.67;;
54557;SDS011;40452;50.080;20.040;2023-03-23T19:33:20;32.65;;;21.10;;
54557;SDS011;40452;50.080;20.040;2023-03-23T19:35:50;32.80;;;21.73;;
54557;SDS011;40452;50.080;20.040;2023-03-23T19:38:18;32.83;;;22.05;;
54557;SDS011;40452;50.080;20.040;2023-03-23T19:40:49;34.03;;;20.60;;
54557;SDS011;40452;50.080;20.040;2023-03-23T19:43:16;31.73;;;21.13;;
54557;SDS011;40452;50.080;20.040;2023-03-23T19:45:42;35.35;;;21.45;;
54557;SDS011;40452;50.080;20.040;2023-03-23T19:48:08;33.50;;;20.92;;
54557;SDS011;40452;50.080;20.040;2023-03-23T19:50:33;29.80;;;20.35;;
54557;SDS011;40452;50.080;20.040;2023-03-23T19:53:02;31.17;;;20.52;;
54557;SDS011;40452;50.080;20.040;2023-03-23T19:55:28;29.85;;;20.25;;
54557;SDS011;40452;50.080;20.040;2023-03-23T19:57:53;28.00;;;20.25;;
54557;SDS011;40452;50.080;20.040;2023-03-23T20:00:19;31.52;;;20.35;;
54557;SDS011;40452;50.080;20.040;2023-03-23T20:02:44;30.35;;;19.98;;
54557;SDS011;40452;50.080;20.040;2023-03-23T20:05:10;30.98;;;19.48;;
54557;SDS011;40452;50.080;20.040;2023-03-23T20:07:36;30.70;;;19.40;;
